Flight Track Log - Related Links

Times and Time Zones

All times are in EDT time to prevent confusion due to time zone crossing. See the USC105 flight status page for this flight to view local times or setup timezone preferences in your user account.

Time Position Orientation Groundspeed Altitude Reporting Facility
EDT Latitude Longitude Course Direction KTS MPH feet Rate Location/Type
Wed 23:14:32 41.5294 -81.6731 348° North 136 157 1,100  Level Cleveland Center
Wed 23:14:51 41.5400 -81.6761 348° North 131 151 1,300 608 Climbing Cleveland Center
Wed 23:15:51 41.5644 -81.7153 310° West 160 184 1,900 744 Climbing Cleveland Center
Wed 23:16:52 41.5806 -81.7711 291° West 154 177 2,800 1,041 Climbing Cleveland Center
Wed 23:17:52 41.5928 -81.8186 289° West 124 143 4,000 1,190 Climbing Cleveland Center
Wed 23:18:53 41.6067 -81.8606 294° West 119 137 5,200 942 Climbing Cleveland Center
Wed 23:19:53 41.6189 -81.9025 291° West 120 138 5,900 744 Climbing Cleveland Center
Wed 23:20:54 41.6308 -81.9444 291° West 123 142 6,700 836 Climbing Cleveland Center
Wed 23:21:55 41.6428 -81.9892 290° West 127 146 7,600 645 Climbing Cleveland Center
Wed 23:22:55 41.6589 -82.0394 293° West 145 167 8,000 198 Climbing Cleveland Center
Wed 23:23:56 41.6789 -82.0956 296° West 176 203 8,000 -47 Level Cleveland Center
Wed 23:25:03 41.6989 -82.1628 292° West 165 190 7,900  Descending Cleveland Center
Wed 23:26:03 41.7169 -82.2189 293° West 168 193 8,000  Climbing Cleveland Center
Wed 23:27:04 41.7347 -82.2750 293° West 163 188 7,900 -50 Descending Cleveland Center
Wed 23:28:04 41.7528 -82.3339 292° West 167 192 7,900  Level Cleveland Center
Wed 23:29:05 41.7686 -82.3900 291° West 165 190 7,900  Level Cleveland Center
Wed 23:30:06 41.7864 -82.4489 292° West 166 191 7,900 63 Level Cleveland Center
Wed 23:30:41 41.7983 -82.4828 295° West 168 193 8,000 56 Climbing Cleveland Center
Wed 23:31:54 41.8222 -82.5531 295° West 164 189 8,000  Level Cleveland Center
Wed 23:32:55 41.8400 -82.6067 294° West 162 186 8,000  Level Cleveland Center
Wed 23:34:02 41.8767 -82.6525 317° Northwest 192 221 8,000  Level Cleveland Center
Wed 23:35:02 41.9092 -82.6925 318° Northwest 158 182 8,000 -347 Level Cleveland Center
Wed 23:36:03 41.9292 -82.7489 296° West 173 199 7,300 -496 Descending Cleveland Center
Wed 23:37:03 41.9489 -82.8083 294° West 165 190 7,000 -446 Descending Cleveland Center
Wed 23:38:04 41.9667 -82.8592 295° West 159 183 6,400 -703 Descending Cleveland Center
Wed 23:39:11 41.9903 -82.9242 296° West 172 198 5,500 -600 Descending Cleveland Center
Wed 23:40:24 42.0136 -82.9978 293° West 177 204 5,000 -216 Descending Cleveland Center
Wed 23:41:30 42.0375 -83.0547 299° West 155 178 5,000  Level Cleveland Center
Wed 23:42:31 42.0572 -83.1058 297° West 151 174 5,000  Level Cleveland Center
Wed 23:43:32 42.0792 -83.1542 301° West 146 168 5,000  Level Cleveland Center
Wed 23:44:14 42.0972 -83.1800 313° West 147 169 5,000  Level Cleveland Center
Wed 23:45:09 42.1236 -83.2203 311° West 148 170 5,000  Level Cleveland Center
Wed 23:45:35 42.1339 -83.2331 317° Northwest 145 167 5,000  Level FAA TRACON SMA TRACON (SMA)
Wed 23:45:55 42.1436 -83.2486 310° West 142 163 5,000  Level FAA TRACON SMA TRACON (SMA)
Wed 23:46:14 42.1503 -83.2617 305° West 137 158 5,000  Level FAA TRACON SMA TRACON (SMA)
Wed 23:46:35 42.1547 -83.2758 293° West 132 152 5,000  Level FAA TRACON SMA TRACON (SMA)
Wed 23:46:54 42.1594 -83.2936 290° West 131 151 5,000 150 Level FAA TRACON SMA TRACON (SMA)
Wed 23:47:15 42.1631 -83.3083 288° West 132 152 5,100  Climbing FAA TRACON SMA TRACON (SMA)
Wed 23:47:34 42.1672 -83.3258 288° West 134 154 5,000 -154 Descending FAA TRACON SMA TRACON (SMA)
Wed 23:47:54 42.1714 -83.3422 289° West 142 163 5,000  Level FAA TRACON SMA TRACON (SMA)
Wed 23:48:15 42.1756 -83.3567 291° West 141 162 5,000  Level FAA TRACON SMA TRACON (SMA)
Wed 23:48:34 42.1806 -83.3750 290° West 139 160 5,000  Level FAA TRACON SMA TRACON (SMA)
Wed 23:48:55 42.1844 -83.3892 290° West 138 159 5,000  Level FAA TRACON SMA TRACON (SMA)
Wed 23:49:14 42.1886 -83.4064 288° West 135 155 5,000 -300 Level FAA TRACON SMA TRACON (SMA)
Wed 23:49:35 42.1925 -83.4236 287° West 137 158 4,800 -900 Descending FAA TRACON SMA TRACON (SMA)
Wed 23:49:54 42.1961 -83.4406 286° West 162 186 4,400 -1,385 Descending FAA TRACON SMA TRACON (SMA)
Wed 23:50:14 42.2000 -83.4589 286° West 173 199 3,900 -1,610 Descending FAA TRACON SMA TRACON (SMA)
Wed 23:50:35 42.2047 -83.4850 284° West 186 214 3,300 -1,350 Descending FAA TRACON SMA TRACON (SMA)
Wed 23:50:54 42.2081 -83.5061 282° West 186 214 3,000 -600 Descending FAA TRACON SMA TRACON (SMA)
Wed 23:51:15 42.2100 -83.5300 276° West 160 184 2,900 -450 Descending FAA TRACON SMA TRACON (SMA)
Wed 23:51:34 42.2153 -83.5458 294° West 140 161 2,700 -769 Descending FAA TRACON SMA TRACON (SMA)
Wed 23:51:54 42.2189 -83.5611 288° West 132 152 2,400 -1,171 Descending FAA TRACON SMA TRACON (SMA)
Wed 23:52:15 42.2111 -83.5639 195° South 93 107 1,900 -1,317 Descending FAA TRACON SMA TRACON (SMA)
Wed 23:52:35 42.2183 -83.5558 40° Northeast 110 127 1,500 -1,200 Descending FAA TRACON SMA TRACON (SMA)
Wed 23:52:55 42.2250 -83.5478 42° Northeast 99 114 1,100 -923 Descending FAA TRACON SMA TRACON (SMA)
Wed 23:53:14 42.2297 -83.5408 47° Northeast 107 123 900 -200 Descending FAA TRACON SMA TRACON (SMA)
Wed 23:53:55 42.2297 -83.5408 312° West 107 123 900 2,566 Level FAA TRACON SMA TRACON (SMA)
Wed 23:55:39 42.1667 -84.4833 265° West 231 266 7,100 3,577 Climbing Chicago TRACON

Login

Don't have an account? Register now (free) for customized features, flight alerts, and more!